createdAt,value
2023-03-19T00:01:35.209Z,26.83
2023-03-19T00:04:02.863Z,27.15
2023-03-19T00:06:30.650Z,23.77
2023-03-19T00:09:48.409Z,24.33
2023-03-19T00:12:16.408Z,24.10
2023-03-19T00:14:43.937Z,25.10
2023-03-19T00:17:13.841Z,24.23
2023-03-19T00:19:41.404Z,19.92
2023-03-19T00:22:08.918Z,20.67
2023-03-19T00:24:39.232Z,23.33
2023-03-19T00:27:06.792Z,27.77
2023-03-19T00:29:34.413Z,23.52
2023-03-19T00:32:02.507Z,24.17
2023-03-19T00:34:39.279Z,25.02
2023-03-19T00:37:07.551Z,30.02
2023-03-19T00:39:35.196Z,25.00
2023-03-19T00:42:02.805Z,18.73
2023-03-19T00:44:30.307Z,21.00
2023-03-19T00:46:57.952Z,22.92
2023-03-19T00:49:25.608Z,20.75
2023-03-19T00:51:53.415Z,23.77
2023-03-19T00:54:20.958Z,24.17
2023-03-19T00:56:51.595Z,23.52
2023-03-19T00:59:19.118Z,25.17
2023-03-19T01:01:46.783Z,25.85
2023-03-19T01:04:15.433Z,22.33
2023-03-19T01:06:43.283Z,21.42
2023-03-19T01:09:14.748Z,24.83
2023-03-19T01:11:42.439Z,24.52
2023-03-19T01:14:10.454Z,24.48
2023-03-19T01:16:40.388Z,23.63
2023-03-19T01:19:08.082Z,21.10
2023-03-19T01:21:36.622Z,20.08
2023-03-19T01:24:04.485Z,19.08
2023-03-19T01:26:35.084Z,20.35
2023-03-19T01:29:15.532Z,19.73
2023-03-19T01:31:43.206Z,23.58
2023-03-19T01:34:24.649Z,20.85
2023-03-19T01:36:58.010Z,19.40
2023-03-19T01:39:32.915Z,18.58
2023-03-19T01:42:03.760Z,19.27
2023-03-19T01:45:37.146Z,20.90
2023-03-19T01:48:29.512Z,17.30
2023-03-19T01:51:11.391Z,20.08
2023-03-19T01:54:50.396Z,20.70
2023-03-19T01:57:36.612Z,21.52
2023-03-19T02:00:08.777Z,21.00
2023-03-19T02:02:49.318Z,23.65
2023-03-19T02:05:47.664Z,24.27
2023-03-19T02:08:17.605Z,25.13
2023-03-19T02:10:47.817Z,23.15
2023-03-19T02:13:27.219Z,23.23
2023-03-19T02:15:57.545Z,27.17
2023-03-19T02:18:25.817Z,27.67
2023-03-19T02:21:14.698Z,25.95
2023-03-19T02:24:11.680Z,23.95
2023-03-19T02:27:25.572Z,23.50
2023-03-19T02:30:32.000Z,22.73
2023-03-19T02:33:05.731Z,22.42
2023-03-19T02:35:35.391Z,22.15
2023-03-19T02:38:06.233Z,24.60
2023-03-19T02:40:44.108Z,23.08
2023-03-19T02:43:11.835Z,23.40
2023-03-19T02:46:43.218Z,22.52
2023-03-19T02:49:43.073Z,23.88
2023-03-19T02:52:10.976Z,23.98
2023-03-19T02:54:38.610Z,23.50
2023-03-19T02:57:13.744Z,26.63
2023-03-19T02:59:41.454Z,25.42
2023-03-19T03:02:11.359Z,23.83
2023-03-19T03:05:40.657Z,21.52
2023-03-19T03:08:10.540Z,23.75
2023-03-19T03:10:38.168Z,24.88
2023-03-19T03:13:05.822Z,26.50
2023-03-19T03:15:33.782Z,25.35
2023-03-19T03:18:01.450Z,23.38
2023-03-19T03:20:32.078Z,25.90
2023-03-19T03:22:59.765Z,24.88
2023-03-19T03:25:32.160Z,24.63
2023-03-19T03:28:00.008Z,23.17
2023-03-19T03:30:30.601Z,25.65
2023-03-19T03:32:59.360Z,24.20
2023-03-19T03:35:27.430Z,25.13
2023-03-19T03:37:55.395Z,28.65
2023-03-19T03:40:22.896Z,26.23
2023-03-19T03:42:50.905Z,23.88
2023-03-19T03:45:24.974Z,23.63
2023-03-19T03:47:53.354Z,24.20
2023-03-19T03:50:21.029Z,23.35
2023-03-19T03:52:51.009Z,24.00
2023-03-19T03:55:18.586Z,22.90
2023-03-19T03:57:46.196Z,25.38
2023-03-19T04:00:14.430Z,26.05
2023-03-19T04:02:42.758Z,24.05
2023-03-19T04:05:14.129Z,22.83
2023-03-19T04:07:52.960Z,27.33
2023-03-19T04:10:20.970Z,27.35
2023-03-19T04:12:49.814Z,30.30
2023-03-19T04:15:19.484Z,30.15
2023-03-19T04:17:49.013Z,31.45
2023-03-19T04:20:18.757Z,27.50
2023-03-19T04:22:46.794Z,29.45
2023-03-19T04:25:14.590Z,29.02
2023-03-19T04:27:42.358Z,29.23
2023-03-19T04:30:13.700Z,29.48
2023-03-19T04:32:43.056Z,27.58
2023-03-19T04:35:12.992Z,28.50
2023-03-19T04:37:40.661Z,28.10
2023-03-19T04:40:09.378Z,27.42
2023-03-19T04:42:38.203Z,29.10
2023-03-19T04:45:26.361Z,27.73
2023-03-19T04:47:54.074Z,29.15
2023-03-19T04:50:21.641Z,29.80
2023-03-19T04:52:49.758Z,26.08
2023-03-19T04:55:19.652Z,30.05
2023-03-19T04:57:58.182Z,26.13
2023-03-19T05:00:49.381Z,29.73
2023-03-19T05:03:48.993Z,27.27
2023-03-19T05:06:40.796Z,28.20
2023-03-19T05:09:08.438Z,26.48
2023-03-19T05:11:36.041Z,26.27
2023-03-19T05:14:08.634Z,26.27
2023-03-19T05:16:53.349Z,24.77
2023-03-19T05:19:25.013Z,25.85
2023-03-19T05:21:52.850Z,29.88
2023-03-19T05:24:24.866Z,29.05
2023-03-19T05:26:53.488Z,25.85
2023-03-19T08:21:45.567Z,20.58
2023-03-19T08:24:28.406Z,20.17
2023-03-19T08:27:13.094Z,19.30
2023-03-19T08:48:06.459Z,16.88
2023-03-19T08:50:38.799Z,16.92
2023-03-19T08:53:08.732Z,17.25
2023-03-19T08:56:06.643Z,18.85
2023-03-19T08:58:36.841Z,18.20
2023-03-19T09:01:21.263Z,19.63
2023-03-19T09:03:49.081Z,13.90
2023-03-19T09:06:17.090Z,14.85
2023-03-19T09:08:47.179Z,16.27
2023-03-19T09:14:30.200Z,18.58
2023-03-19T09:16:58.253Z,16.50
2023-03-19T09:19:29.341Z,17.25
2023-03-19T09:22:08.078Z,19.67
2023-03-19T09:24:43.327Z,18.98
2023-03-19T09:27:14.810Z,18.30
2023-03-19T09:29:44.341Z,15.85
2023-03-19T09:35:59.947Z,14.63
2023-03-19T09:38:29.336Z,15.27
2023-03-19T09:41:29.454Z,16.05
2023-03-19T09:44:21.757Z,15.13
2023-03-19T09:47:28.050Z,13.98
2023-03-19T09:50:05.087Z,12.32
2023-03-19T09:56:21.356Z,13.10
2023-03-19T09:59:43.117Z,15.13
2023-03-19T10:05:33.497Z,14.38
2023-03-19T10:11:56.384Z,15.75
2023-03-19T10:15:00.570Z,13.00
2023-03-19T10:17:35.242Z,12.57
2023-03-19T10:20:37.281Z,13.00
2023-03-19T10:23:34.084Z,12.77
2023-03-19T10:26:05.659Z,11.38
2023-03-19T10:28:36.221Z,12.73
2023-03-19T10:31:37.938Z,14.25
2023-03-19T10:34:28.983Z,9.95
2023-03-19T10:37:05.190Z,10.93
2023-03-19T10:39:41.649Z,12.98
2023-03-19T10:48:49.819Z,10.88
2023-03-19T10:51:24.430Z,11.43
2023-03-19T10:58:55.579Z,12.00
2023-03-19T11:01:30.719Z,12.77
2023-03-19T11:06:56.595Z,11.38
2023-03-19T11:09:33.398Z,12.65
2023-03-19T11:12:23.289Z,12.07
2023-03-19T11:14:53.260Z,13.32
2023-03-19T11:17:39.956Z,14.10
2023-03-19T11:20:36.551Z,13.60
2023-03-19T11:23:16.204Z,12.63
2023-03-19T11:25:52.323Z,13.25
2023-03-19T11:28:26.439Z,12.50
2023-03-19T11:31:25.368Z,11.85
2023-03-19T11:34:25.016Z,12.48
2023-03-19T11:42:18.258Z,12.75
2023-03-19T11:48:12.588Z,14.02
2023-03-19T11:51:06.103Z,12.53
2023-03-19T11:54:11.625Z,14.23
2023-03-19T11:56:48.933Z,13.10
2023-03-19T11:59:55.108Z,11.30
2023-03-19T12:03:08.026Z,14.40
2023-03-19T12:19:32.180Z,14.68
2023-03-19T12:22:21.774Z,15.50
2023-03-19T12:24:53.261Z,14.23
2023-03-19T12:27:43.038Z,15.75
2023-03-19T12:35:14.931Z,16.52
2023-03-19T12:37:58.397Z,14.88
2023-03-19T12:40:33.717Z,17.20
2023-03-19T12:43:11.982Z,16.95
2023-03-19T12:45:47.895Z,15.15
2023-03-19T12:48:24.905Z,15.93
2023-03-19T12:50:57.792Z,17.63
2023-03-19T12:53:42.378Z,16.58
2023-03-19T12:56:23.126Z,15.25
2023-03-19T12:59:10.234Z,16.63
2023-03-19T13:01:45.899Z,15.13
2023-03-19T13:04:26.820Z,16.75
2023-03-19T13:07:11.485Z,16.13
2023-03-19T13:10:59.672Z,16.17
2023-03-19T13:14:51.974Z,14.75
2023-03-19T13:17:34.659Z,15.70
2023-03-19T13:20:31.574Z,16.45
2023-03-19T13:23:06.430Z,19.00
2023-03-19T13:25:44.230Z,16.30
2023-03-19T13:28:28.522Z,16.98
2023-03-19T13:31:01.564Z,18.95
2023-03-19T13:33:36.732Z,19.90
2023-03-19T13:36:07.895Z,18.13
2023-03-19T13:38:41.873Z,19.25
2023-03-19T13:41:39.815Z,18.98
2023-03-19T13:52:16.017Z,17.23
2023-03-19T13:54:46.184Z,16.85
2023-03-19T13:57:18.675Z,17.08
2023-03-19T13:59:51.093Z,16.02
2023-03-19T14:02:26.640Z,18.63
2023-03-19T14:05:05.627Z,17.08
2023-03-19T14:07:41.555Z,21.70
2023-03-19T14:10:30.964Z,19.77
2023-03-19T14:13:17.705Z,17.88
2023-03-19T14:15:53.961Z,17.77
2023-03-19T14:18:30.640Z,18.92
2023-03-19T14:21:08.397Z,18.33
2023-03-19T14:23:45.969Z,18.48
2023-03-19T14:26:23.415Z,17.42
2023-03-19T14:29:02.982Z,17.13
2023-03-19T14:31:38.652Z,18.13
2023-03-19T14:34:47.124Z,17.77
2023-03-19T14:49:40.189Z,18.92
2023-03-19T14:52:17.340Z,19.92
2023-03-19T14:54:53.436Z,22.65
2023-03-19T14:57:59.496Z,18.00
2023-03-19T15:00:32.718Z,17.15
2023-03-19T15:03:19.314Z,16.80
2023-03-19T15:05:55.086Z,16.73
2023-03-19T15:08:54.129Z,16.00
2023-03-19T15:11:42.334Z,16.27
2023-03-19T15:14:24.049Z,18.10
2023-03-19T15:17:09.560Z,17.35
2023-03-19T15:19:39.798Z,17.63
2023-03-19T15:22:16.913Z,16.50
2023-03-19T15:24:44.864Z,16.85
2023-03-19T15:27:23.777Z,17.08
2023-03-19T15:34:39.432Z,16.98
2023-03-19T15:37:15.569Z,18.48
2023-03-19T15:39:49.820Z,16.85
2023-03-19T15:42:20.755Z,18.17
2023-03-19T15:44:55.721Z,17.25
2023-03-19T15:47:32.595Z,17.42
2023-03-19T15:50:10.407Z,18.00
2023-03-19T15:53:09.810Z,16.25
2023-03-19T15:55:39.640Z,16.38
2023-03-19T16:03:00.244Z,16.80
2023-03-19T16:05:31.190Z,17.50
2023-03-19T16:08:08.933Z,15.20
2023-03-19T16:10:52.687Z,15.73
2023-03-19T16:13:42.453Z,14.82
2023-03-19T16:16:35.353Z,15.02
2023-03-19T16:19:48.521Z,14.02
2023-03-19T16:22:24.309Z,16.77
2023-03-19T16:24:56.154Z,13.05
2023-03-19T16:27:39.067Z,14.25
2023-03-19T16:30:22.660Z,15.52
2023-03-19T16:33:00.972Z,15.82
2023-03-19T16:35:59.049Z,16.65
2023-03-19T16:38:28.570Z,15.85
2023-03-19T16:41:22.826Z,14.77
2023-03-19T16:43:54.494Z,15.40
2023-03-19T16:50:40.360Z,15.32
2023-03-19T16:53:22.132Z,15.40
2023-03-19T16:55:51.653Z,14.95
2023-03-19T16:58:46.812Z,16.80
2023-03-19T17:01:24.858Z,15.85
2023-03-19T17:03:53.160Z,14.80
2023-03-19T17:06:24.521Z,18.02
2023-03-19T17:08:53.697Z,16.08
2023-03-19T17:11:41.813Z,15.20
2023-03-19T17:28:32.664Z,15.70
2023-03-19T17:35:46.859Z,15.15
2023-03-19T17:41:47.607Z,14.15
2023-03-19T17:47:16.890Z,17.23
2023-03-19T17:49:47.434Z,16.30
2023-03-19T17:52:30.262Z,16.90
2023-03-19T17:55:24.356Z,16.95
2023-03-19T17:58:18.554Z,17.88
2023-03-19T18:00:57.391Z,20.70
2023-03-19T18:03:37.732Z,25.60
2023-03-19T18:06:07.405Z,25.10
2023-03-19T18:08:39.680Z,29.52
2023-03-19T18:11:14.660Z,33.45
2023-03-19T18:13:43.170Z,22.92
2023-03-19T18:17:21.570Z,20.15
2023-03-19T18:20:51.947Z,22.30
2023-03-19T18:23:29.765Z,21.48
2023-03-19T18:25:57.496Z,21.05
2023-03-19T18:28:25.335Z,19.67
2023-03-19T18:30:54.720Z,22.00
2023-03-19T18:33:28.252Z,26.00
2023-03-19T18:35:58.069Z,23.88
2023-03-19T18:38:26.603Z,22.20
2023-03-19T18:40:54.801Z,20.50
2023-03-19T18:43:22.259Z,20.05
2023-03-19T18:45:53.016Z,24.05
2023-03-19T18:48:28.200Z,21.33
2023-03-19T18:50:56.255Z,22.63
2023-03-19T18:53:24.215Z,22.02
2023-03-19T18:55:52.351Z,21.83
2023-03-19T18:58:27.134Z,22.33
2023-03-19T19:00:55.564Z,21.23
2023-03-19T19:03:29.648Z,19.42
2023-03-19T19:05:57.244Z,22.55
2023-03-19T19:08:27.018Z,21.48
2023-03-19T19:10:58.899Z,22.58
2023-03-19T19:13:55.161Z,22.08
2023-03-19T19:16:38.275Z,28.75
2023-03-19T19:19:16.673Z,22.25
2023-03-19T19:21:44.076Z,24.98
2023-03-19T19:24:13.180Z,24.38
2023-03-19T19:26:44.236Z,26.67
2023-03-19T19:29:31.254Z,25.95
2023-03-19T19:31:58.677Z,24.67
2023-03-19T19:34:26.239Z,23.73
2023-03-19T19:36:57.622Z,23.80
2023-03-19T19:39:30.229Z,23.17
2023-03-19T19:42:01.763Z,25.33
2023-03-19T19:44:48.162Z,22.27
2023-03-19T19:50:40.280Z,23.98
2023-03-19T19:53:29.974Z,23.98
2023-03-19T19:56:25.807Z,24.55
2023-03-19T19:59:01.371Z,22.05
2023-03-19T20:01:29.574Z,22.55
2023-03-19T20:03:58.647Z,22.33
2023-03-19T20:06:26.854Z,21.42
2023-03-19T20:08:54.786Z,21.50
2023-03-19T20:11:24.424Z,22.65
2023-03-19T20:13:55.653Z,23.58
2023-03-19T20:28:47.813Z,21.80
2023-03-19T20:31:37.835Z,22.50
2023-03-19T20:34:28.692Z,22.35
2023-03-19T20:37:21.041Z,25.65
2023-03-19T20:40:09.538Z,22.98
2023-03-19T20:47:01.237Z,24.63
2023-03-19T20:53:31.453Z,24.23
2023-03-19T20:56:00.308Z,24.27
2023-03-19T20:58:31.080Z,26.27
2023-03-19T21:00:59.657Z,24.33
2023-03-19T21:03:35.019Z,24.75
2023-03-19T21:08:39.387Z,23.45
2023-03-19T21:11:20.761Z,22.90
2023-03-19T21:13:58.199Z,25.48
2023-03-19T21:16:32.270Z,24.67
2023-03-19T21:19:10.024Z,23.25
2023-03-19T21:27:04.225Z,23.23
2023-03-19T21:29:33.699Z,25.52
2023-03-19T21:35:26.923Z,25.98
2023-03-19T21:49:45.510Z,27.38
2023-03-19T21:55:45.401Z,26.70
2023-03-19T21:58:40.515Z,26.63
2023-03-19T22:01:21.473Z,26.90
2023-03-19T22:08:00.897Z,27.52
2023-03-19T22:10:49.965Z,27.55
2023-03-19T22:13:38.382Z,28.25
2023-03-19T22:16:20.041Z,27.30
2023-03-19T22:19:11.988Z,30.95
2023-03-19T22:21:53.935Z,28.42
2023-03-19T22:24:54.579Z,27.65
2023-03-19T22:27:33.483Z,30.60
2023-03-19T22:30:18.774Z,29.60
2023-03-19T22:33:23.970Z,31.80
2023-03-19T22:36:00.820Z,28.55
2023-03-19T22:38:32.824Z,29.50
2023-03-19T22:41:03.748Z,28.38
2023-03-19T22:43:36.630Z,26.80
2023-03-19T22:46:07.410Z,28.40
2023-03-19T22:48:37.500Z,28.52
2023-03-19T22:51:06.770Z,27.92
2023-03-19T22:53:36.965Z,28.35
2023-03-19T22:56:05.094Z,28.67
2023-03-19T22:58:32.954Z,28.75
2023-03-19T23:01:01.072Z,25.98
2023-03-19T23:03:31.357Z,25.75
2023-03-19T23:06:05.517Z,29.08
2023-03-19T23:08:33.651Z,26.08
2023-03-19T23:11:02.475Z,26.33
2023-03-19T23:13:30.516Z,26.13
2023-03-19T23:16:04.937Z,26.90
2023-03-19T23:18:34.870Z,24.50
2023-03-19T23:21:03.623Z,25.38
2023-03-19T23:23:31.911Z,24.67
2023-03-19T23:25:59.882Z,25.08
2023-03-19T23:28:35.019Z,24.67
2023-03-19T23:31:05.761Z,24.90
2023-03-19T23:33:34.537Z,24.65
2023-03-19T23:36:02.824Z,24.55
2023-03-19T23:38:31.715Z,24.70
2023-03-19T23:40:59.636Z,24.48
2023-03-19T23:43:29.946Z,24.23
2023-03-19T23:45:58.598Z,24.88
2023-03-19T23:48:34.948Z,23.58
2023-03-19T23:51:06.316Z,24.55
2023-03-19T23:53:33.966Z,23.25
2023-03-19T23:56:04.928Z,23.83
2023-03-19T23:58:43.375Z,24.92
